| time (UTC) | temp C | wind direction | speed KPH | gust KPH | rain 1hr cm | rain 24hr cm | rain mn cm | humidity % | barometer mb |
| 20260509032610 | 12 | 99 | 0.0 | 0.0 | 0.00 | 0.30 | 0.30 | 80 | 1014.8 |
| 20260509032107 | 12 | 99 | 0.0 | 0.0 | 0.00 | 0.30 | 0.30 | 80 | 1014.4 |
| 20260509031604 | 12 | 99 | 0.0 | 0.0 | 0.00 | 0.30 | 0.30 | 80 | 1014.4 |
| 20260509031102 | 12 | 99 | 0.0 | 0.0 | 0.00 | 0.30 | 0.30 | 79 | 1014.4 |
| 20260509030600 | 12 | 99 | 0.0 | 0.0 | 0.00 | 0.30 | 0.30 | 81 | 1014.4 |
| 20260509030056 | 12 | 99 | 0.0 | 0.0 | 0.00 | 0.30 | 0.30 | 80 | 1014.5 |
| 20260509025553 | 12 | 99 | 0.0 | 0.0 | 0.00 | 0.30 | 0.30 | 78 | 1014.6 |
| 20260509025048 | 12 | 99 | 0.0 | 0.0 | 0.00 | 0.30 | 0.30 | 79 | 1014.6 |
| 20260509024544 | 12 | 99 | 0.0 | 0.0 | 0.00 | 0.30 | 0.30 | 78 | 1014.5 |
| 20260509024040 | 12 | 99 | 0.0 | 0.0 | 0.00 | 0.30 | 0.30 | 75 | 1014.2 |
| 20260509023538 | 13 | 99 | 0.0 | 0.0 | 0.18 | 0.30 | 0.30 | 76 | 1014.5 |
| 20260509023035 | 13 | 99 | 0.0 | 0.0 | 0.18 | 0.30 | 0.30 | 75 | 1014.4 |
| 20260509022531 | 13 | 99 | 0.0 | 0.0 | 0.00 | 0.28 | 0.28 | 75 | 1014.4 |
| 20260509022029 | 13 | 99 | 0.0 | 0.0 | 0.00 | 0.28 | 0.28 | 75 | 1014.7 |
| 20260509021526 | 13 | 99 | 0.0 | 0.0 | 0.00 | 0.28 | 0.28 | 72 | 1014.6 |
| 20260509021023 | 13 | 99 | 0.0 | 0.0 | 0.00 | 0.28 | 0.28 | 72 | 1014.6 |
| 20260509020522 | 13 | 99 | 0.0 | 0.0 | 0.00 | 0.28 | 0.28 | 72 | 1014.5 |
| 20260509020018 | 13 | 99 | 0.0 | 0.0 | 0.00 | 0.28 | 0.28 | 76 | 1014.6 |
| 20260509015517 | 13 | 99 | 0.0 | 0.0 | 0.00 | 0.28 | 0.28 | 76 | 1014.5 |
| 20260509015014 | 13 | 99 | 0.0 | 0.0 | 0.00 | 0.28 | 0.28 | 74 | 1014.3 |
| 20260509014511 | 13 | 99 | 0.0 | 0.0 | 0.00 | 0.28 | 0.28 | 72 | 1014.6 |
| 20260509014007 | 14 | 99 | 0.0 | 0.0 | 0.00 | 0.28 | 0.28 | 72 | 1014.3 |
| 20260509013504 | 14 | 99 | 0.0 | 0.0 | 0.00 | 0.28 | 0.28 | 69 | 1014.3 |
| 20260509012959 | 14 | 99 | 0.0 | 0.0 | 0.00 | 0.28 | 0.28 | 71 | 1014.4 |
| 20260509012456 | 14 | 99 | 0.0 | 0.0 | 0.00 | 0.28 | 0.28 | 73 | 1014.3 |
| 20260509011953 | 14 | 99 | 0.0 | 0.0 | 0.00 | 0.28 | 0.28 | 73 | 1014.2 |
| 20260509011450 | 14 | 99 | 0.0 | 0.0 | 0.00 | 0.28 | 0.28 | 73 | 1014.4 |
| 20260509010948 | 14 | 99 | 0.0 | 0.0 | 0.00 | 0.28 | 0.28 | 71 | 1014.3 |
| 20260509010446 | 15 | 99 | 0.0 | 0.0 | 0.00 | 0.28 | 0.28 | 72 | 1014.2 |
| 20260509005942 | 15 | 99 | 0.0 | 0.0 | 0.00 | 0.28 | 0.28 | 71 | 1014.3 |
| 20260509005440 | 15 | 99 | 0.0 | 0.0 | 0.00 | 0.28 | 0.28 | 68 | 1014.2 |
| 20260509004940 | 15 | 99 | 0.0 | 0.0 | 0.00 | 0.28 | 0.28 | 70 | 1014.4 |
| 20260509004437 | 15 | 99 | 0.0 | 0.0 | 0.00 | 0.28 | 0.28 | 71 | 1014.2 |
| 20260509003935 | 15 | 99 | 0.0 | 0.0 | 0.00 | 0.28 | 0.28 | 71 | 1014.1 |
| 20260509003433 | 15 | 99 | 0.0 | 0.0 | 0.00 | 0.28 | 0.28 | 70 | 1014.2 |
| 20260509002929 | 15 | 99 | 0.0 | 0.0 | 0.00 | 0.28 | 0.28 | 68 | 1014.4 |
| 20260509002427 | 16 | 99 | 0.0 | 0.0 | 0.00 | 0.28 | 0.28 | 69 | 1014.0 |
| 20260509001924 | 16 | 99 | 0.0 | 0.0 | 0.00 | 0.28 | 0.28 | 67 | 1014.1 |
| 20260509001420 | 16 | 99 | 0.0 | 0.0 | 0.00 | 0.28 | 0.28 | 67 | 1014.2 |
| 20260509000917 | 16 | 99 | 0.0 | 0.0 | 0.00 | 0.28 | 0.28 | 66 | 1014.3 |
| 20260509000417 | 16 | 99 | 0.0 | 0.0 | 0.00 | 0.28 | 0.28 | 65 | 1014.2 |
| 20260508235911 | 17 | 99 | 0.0 | 0.0 | 0.00 | 0.28 | 0.28 | 64 | 1014.3 |
| 20260508235409 | 17 | 99 | 0.0 | 0.0 | 0.00 | 0.28 | 0.28 | 64 | 1014.2 |
| 20260508234905 | 17 | 99 | 0.0 | 0.0 | 0.00 | 0.28 | 0.28 | 65 | 1014.2 |
| 20260508234402 | 17 | 99 | 0.0 | 0.0 | 0.00 | 0.28 | 0.28 | 64 | 1014.4 |
| 20260508233900 | 17 | 99 | 0.0 | 0.0 | 0.00 | 0.28 | 0.28 | 64 | 1014.2 |
| 20260508233400 | 17 | 105 | 0.0 | 0.0 | 0.00 | 0.28 | 0.28 | 64 | 1014.4 |
| 20260508232856 | 18 | 105 | 0.0 | 0.0 | 0.00 | 0.28 | 0.28 | 65 | 1014.3 |
| 20260508232352 | 18 | 105 | 0.0 | 0.0 | 0.00 | 0.28 | 0.28 | 63 | 1014.4 |
| 20260508231850 | 18 | 106 | 0.0 | 0.0 | 0.00 | 0.28 | 0.28 | 62 | 1014.3 |
| 20260508231346 | 18 | 97 | 1.6 | 1.6 | 0.00 | 0.28 | 0.28 | 61 | 1014.4 |
| 20260508230843 | 18 | 102 | 0.0 | 1.6 | 0.00 | 0.28 | 0.28 | 60 | 1014.2 |
| 20260508230340 | 19 | 87 | 1.6 | 1.6 | 0.00 | 0.28 | 0.28 | 59 | 1014.4 |
| 20260508225838 | 19 | 100 | 0.0 | 1.6 | 0.00 | 0.28 | 0.28 | 60 | 1014.2 |
| 20260508225334 | 20 | 90 | 0.0 | 0.0 | 0.00 | 0.28 | 0.28 | 55 | 1014.4 |
| 20260508224832 | 20 | 90 | 0.0 | 0.0 | 0.00 | 0.28 | 0.28 | 57 | 1014.1 |
| 20260508224329 | 20 | 98 | 0.0 | 1.6 | 0.00 | 0.28 | 0.28 | 51 | 1014.3 |
| 20260508223827 | 20 | 90 | 0.0 | 0.0 | 0.00 | 0.28 | 0.28 | 56 | 1014.2 |
| 20260508223324 | 20 | 90 | 0.0 | 0.0 | 0.00 | 0.28 | 0.28 | 55 | 1014.3 |
| 20260508222821 | 20 | 90 | 0.0 | 1.6 | 0.00 | 0.28 | 0.28 | 50 | 1014.3 |
| 20260508222318 | 20 | 91 | 0.0 | 0.0 | 0.00 | 0.28 | 0.28 | 53 | 1014.1 |
| 20260508221815 | 20 | 89 | 1.6 | 1.6 | 0.00 | 0.28 | 0.28 | 45 | 1014.5 |
| 20260508221310 | 21 | 91 | 0.0 | 1.6 | 0.00 | 0.28 | 0.28 | 47 | 1014.3 |
| 20260508220807 | 20 | 91 | 0.0 | 1.6 | 0.00 | 0.28 | 0.28 | 50 | 1014.3 |
| 20260508220304 | 21 | 101 | 0.0 | 1.6 | 0.00 | 0.28 | 0.28 | 53 | 1014.5 |
| 20260508215800 | 21 | 90 | 1.6 | 1.6 | 0.00 | 0.28 | 0.28 | 52 | 1014.6 |
| 20260508215257 | 21 | 98 | 0.0 | 1.6 | 0.00 | 0.28 | 0.28 | 44 | 1014.4 |
| 20260508214754 | 21 | 85 | 1.6 | 3.2 | 0.13 | 0.28 | 0.28 | 46 | 1014.5 |
| 20260508214251 | 21 | 102 | 0.0 | 1.6 | 0.13 | 0.28 | 0.28 | 46 | 1014.5 |
| 20260508213747 | 21 | 89 | 0.0 | 3.2 | 0.00 | 0.25 | 0.25 | 43 | 1014.8 |
| 20260508213244 | 21 | 94 | 3.2 | 3.2 | 0.00 | 0.25 | 0.25 | 48 | 1014.7 |
| 20260508212741 | 21 | 101 | 1.6 | 1.6 | 0.00 | 0.25 | 0.25 | 48 | 1014.5 |
| 20260508212237 | 21 | 96 | 0.0 | 3.2 | 0.00 | 0.25 | 0.25 | 46 | 1014.7 |
| 20260508211733 | 21 | 80 | 1.6 | 8.0 | 0.00 | 0.25 | 0.25 | 47 | 1014.8 |
| 20260508211229 | 21 | 82 | 1.6 | 1.6 | 0.00 | 0.25 | 0.25 | 44 | 1014.8 |
| 20260508210727 | 21 | 84 | 1.6 | 3.2 | 0.00 | 0.25 | 0.25 | 44 | 1014.7 |
| 20260508210223 | 21 | 110 | 1.6 | 4.8 | 0.00 | 0.25 | 0.25 | 44 | 1014.6 |
| 20260508205720 | 21 | 81 | 4.8 | 4.8 | 0.00 | 0.25 | 0.25 | 43 | 1014.6 |
| 20260508205216 | 21 | 104 | 0.0 | 4.8 | 0.00 | 0.25 | 0.25 | 44 | 1014.5 |
| 20260508204712 | 21 | 92 | 0.0 | 1.6 | 0.18 | 0.25 | 0.25 | 43 | 1014.6 |
| 20260508204209 | 21 | 99 | 0.0 | 0.0 | 0.18 | 0.25 | 0.25 | 43 | 1014.7 |
| 20260508203705 | 21 | 75 | 1.6 | 4.8 | 0.00 | 0.23 | 0.23 | 43 | 1014.8 |
| 20260508203202 | 21 | 82 | 1.6 | 3.2 | 0.00 | 0.23 | 0.23 | 41 | 1015.0 |
| 20260508202658 | 21 | 106 | 1.6 | 3.2 | 0.00 | 0.23 | 0.23 | 44 | 1015.1 |
| 20260508202155 | 21 | 90 | 1.6 | 3.2 | 0.00 | 0.23 | 0.23 | 43 | 1014.9 |
| 20260508201652 | 20 | 90 | 0.0 | 1.6 | 0.00 | 0.23 | 0.23 | 41 | 1014.9 |
| 20260508201149 | 20 | 113 | 0.0 | 3.2 | 0.00 | 0.23 | 0.23 | 48 | 1014.9 |
| 20260508200646 | 21 | 91 | 1.6 | 1.6 | 0.00 | 0.23 | 0.23 | 41 | 1015.0 |
| 20260508200142 | 21 | 103 | 1.6 | 1.6 | 0.13 | 0.23 | 0.23 | 43 | 1015.1 |
| 20260508195638 | 20 | 90 | 0.0 | 0.0 | 0.00 | 0.20 | 0.20 | 41 | 1015.2 |
| 20260508195134 | 20 | 102 | 0.0 | 3.2 | 0.00 | 0.20 | 0.20 | 48 | 1015.4 |
| 20260508194631 | 20 | 94 | 0.0 | 1.6 | 0.00 | 0.20 | 0.20 | 43 | 1015.3 |
| 20260508194128 | 20 | 106 | 1.6 | 3.2 | 0.00 | 0.20 | 0.20 | 45 | 1015.4 |
| 20260508193625 | 20 | 107 | 0.0 | 3.2 | 0.00 | 0.20 | 0.20 | 44 | 1015.5 |
| 20260508193122 | 20 | 97 | 0.0 | 1.6 | 0.00 | 0.20 | 0.20 | 44 | 1015.6 |
| 20260508192618 | 20 | 106 | 1.6 | 3.2 | 0.18 | 0.20 | 0.20 | 43 | 1016.0 |
| 20260508192115 | 21 | 98 | 0.0 | 3.2 | 0.00 | 0.18 | 0.18 | 41 | 1016.3 |
| 20260508191612 | 20 | 84 | 1.6 | 3.2 | 0.00 | 0.18 | 0.18 | 42 | 1016.4 |
| 20260508191109 | 21 | 94 | 0.0 | 4.8 | 0.00 | 0.18 | 0.18 | 45 | 1016.5 |
| 20260508190606 | 21 | 112 | 1.6 | 3.2 | 0.13 | 0.18 | 0.18 | 45 | 1016.6 |
| 20260508185600 | 20 | 113 | 1.6 | 3.2 | 0.00 | 0.15 | 0.15 | 44 | 1016.6 |
| 20260508185057 | 20 | 115 | 1.6 | 1.6 | 0.00 | 0.15 | 0.15 | 46 | 1016.9 |
| 20260508184554 | 20 | 30 | 4.8 | 8.0 | 0.18 | 0.15 | 0.15 | 41 | 1016.8 |
| 20260508184051 | 20 | 101 | 1.6 | 1.6 | 0.18 | 0.15 | 0.15 | 46 | 1016.8 |
| 20260508183548 | 20 | 112 | 3.2 | 4.8 | 0.00 | 0.13 | 0.13 | 41 | 1016.8 |
| 20260508183044 | 21 | 96 | 0.0 | 1.6 | 0.13 | 0.13 | 0.13 | 41 | 1016.9 |
| 20260508182540 | 20 | 86 | 0.0 | 3.2 | 0.13 | 0.13 | 0.13 | 41 | 1017.0 |
| 20260508182037 | 20 | 87 | 1.6 | 1.6 | 0.00 | 0.10 | 0.10 | 42 | 1017.2 |
| 20260508181532 | 20 | 90 | 0.0 | 3.2 | 0.00 | 0.10 | 0.10 | 37 | 1017.0 |
| 20260508181031 | 20 | 81 | 0.0 | 3.2 | 0.00 | 0.10 | 0.10 | 39 | 1017.1 |
| 20260508180527 | 20 | 110 | 1.6 | 1.6 | 0.18 | 0.10 | 0.10 | 40 | 1017.2 |
| 20260508180023 | 20 | 96 | 0.0 | 4.8 | 0.18 | 0.10 | 0.10 | 42 | 1017.2 |
| 20260508175520 | 20 | 94 | 0.0 | 1.6 | 0.00 | 0.08 | 0.08 | 41 | 1017.3 |
| 20260508175017 | 20 | 100 | 0.0 | 3.2 | 0.13 | 0.08 | 0.08 | 40 | 1017.4 |
| 20260508174514 | 20 | 108 | 1.6 | 3.2 | 0.13 | 0.08 | 0.08 | 39 | 1017.3 |
| 20260508174011 | 20 | 138 | 3.2 | 4.8 | 0.00 | 0.05 | 0.05 | 47 | 1017.4 |
| 20260508173508 | 19 | 103 | 0.0 | 1.6 | 0.00 | 0.05 | 0.05 | 45 | 1017.4 |
| 20260508173004 | 19 | 109 | 0.0 | 3.2 | 0.00 | 0.05 | 0.05 | 39 | 1017.5 |
| 20260508172501 | 19 | 92 | 0.0 | 3.2 | 0.00 | 0.05 | 0.05 | 42 | 1017.5 |
| 20260508171958 | 19 | 97 | 0.0 | 3.2 | 0.00 | 0.05 | 0.05 | 46 | 1017.7 |
| 20260508171455 | 19 | 111 | 1.6 | 3.2 | 0.00 | 0.05 | 0.05 | 52 | 1017.9 |
| 20260508170951 | 18 | 100 | 0.0 | 1.6 | 0.00 | 0.05 | 0.05 | 50 | 1017.9 |
| 20260508170448 | 18 | 87 | 1.6 | 4.8 | 0.00 | 0.05 | 0.05 | 48 | 1017.9 |
| 20260508165945 | 19 | 109 | 1.6 | 3.2 | 0.00 | 0.05 | 0.05 | 48 | 1017.9 |
| 20260508165444 | 19 | 94 | 0.0 | 1.6 | 0.00 | 0.05 | 0.05 | 56 | 1018.1 |
| 20260508164939 | 18 | 95 | 0.0 | 1.6 | 0.00 | 0.05 | 0.05 | 51 | 1018.3 |
| 20260508164436 | 17 | 82 | 1.6 | 4.8 | 0.00 | 0.05 | 0.05 | 47 | 1018.3 |
| 20260508163933 | 17 | 78 | 3.2 | 4.8 | 0.00 | 0.05 | 0.05 | 50 | 1018.4 |
| 20260508163431 | 17 | 97 | 0.0 | 3.2 | 0.00 | 0.05 | 0.05 | 51 | 1018.4 |
| 20260508162926 | 17 | 101 | 0.0 | 3.2 | 0.00 | 0.05 | 0.05 | 45 | 1018.3 |
| 20260508162424 | 17 | 79 | 1.6 | 1.6 | 0.00 | 0.05 | 0.05 | 50 | 1018.8 |
| 20260508161921 | 18 | 96 | 0.0 | 3.2 | 0.00 | 0.05 | 0.05 | 46 | 1018.9 |
| 20260508161418 | 17 | 82 | 1.6 | 3.2 | 0.00 | 0.05 | 0.05 | 51 | 1018.9 |
| 20260508160915 | 17 | 28 | 3.2 | 3.2 | 0.00 | 0.05 | 0.05 | 48 | 1018.6 |
| 20260508160414 | 17 | 90 | 0.0 | 3.2 | 0.00 | 0.05 | 0.05 | 48 | 1019.1 |
| 20260508155909 | 17 | 100 | 0.0 | 1.6 | 0.00 | 0.05 | 0.05 | 52 | 1019.3 |
| 20260508155407 | 17 | 105 | 0.0 | 3.2 | 0.00 | 0.05 | 0.05 | 51 | 1019.0 |
| 20260508154904 | 17 | 111 | 0.0 | 1.6 | 0.00 | 0.05 | 0.05 | 47 | 1019.0 |
| 20260508154401 | 17 | 83 | 1.6 | 1.6 | 0.00 | 0.05 | 0.05 | 50 | 1019.1 |
| 20260508153858 | 16 | 105 | 0.0 | 0.0 | 0.00 | 0.05 | 0.05 | 56 | 1019.1 |
| 20260508153355 | 16 | 92 | 1.6 | 1.6 | 0.00 | 0.05 | 0.05 | 58 | 1019.3 |
| 20260508152851 | 15 | 117 | 0.0 | 3.2 | 0.00 | 0.05 | 0.05 | 57 | 1019.5 |
| 20260508152347 | 15 | 96 | 1.6 | 1.6 | 0.00 | 0.05 | 0.05 | 55 | 1019.6 |
| 20260508151844 | 16 | 102 | 0.0 | 0.0 | 0.00 | 0.05 | 0.05 | 56 | 1019.6 |
| 20260508151341 | 15 | 96 | 0.0 | 0.0 | 0.00 | 0.05 | 0.05 | 55 | 1019.7 |
| 20260508150837 | 15 | 105 | 0.0 | 1.6 | 0.00 | 0.05 | 0.05 | 53 | 1019.9 |
| 20260508150334 | 15 | 130 | 1.6 | 3.2 | 0.00 | 0.05 | 0.05 | 56 | 1019.7 |
| 20260508145830 | 15 | 111 | 1.6 | 1.6 | 0.00 | 0.05 | 0.05 | 62 | 1019.6 |
| 20260508145326 | 15 | 112 | 1.6 | 1.6 | 0.00 | 0.05 | 0.05 | 63 | 1019.6 |
| 20260508144823 | 15 | 119 | 1.6 | 3.2 | 0.00 | 0.05 | 0.05 | 63 | 1019.8 |
| 20260508144321 | 15 | 101 | 0.0 | 1.6 | 0.00 | 0.05 | 0.05 | 73 | 1019.8 |
| 20260508143819 | 15 | 100 | 0.0 | 0.0 | 0.00 | 0.05 | 0.05 | 71 | 1019.6 |
| 20260508143315 | 15 | 96 | 1.6 | 1.6 | 0.00 | 0.05 | 0.05 | 71 | 1019.7 |
| 20260508142812 | 14 | 93 | 0.0 | 0.0 | 0.00 | 0.05 | 0.05 | 73 | 1019.7 |
| 20260508142309 | 13 | 110 | 0.0 | 3.2 | 0.00 | 0.05 | 0.05 | 73 | 1019.6 |
| 20260508141806 | 13 | 104 | 1.6 | 1.6 | 0.00 | 0.05 | 0.05 | 75 | 1019.8 |
| 20260508141303 | 13 | 101 | 0.0 | 1.6 | 0.00 | 0.05 | 0.05 | 74 | 1019.9 |
| 20260508140800 | 13 | 117 | 0.0 | 0.0 | 0.00 | 0.05 | 0.05 | 79 | 1019.7 |
| 20260508140257 | 13 | 117 | 0.0 | 1.6 | 0.00 | 0.05 | 0.05 | 77 | 1020.0 |
| 20260508135752 | 13 | 115 | 0.0 | 0.0 | 0.00 | 0.05 | 0.05 | 77 | 1019.9 |
| 20260508135249 | 13 | 115 | 0.0 | 0.0 | 0.00 | 0.05 | 0.05 | 81 | 1020.0 |
| 20260508134745 | 12 | 100 | 0.0 | 1.6 | 0.00 | 0.05 | 0.05 | 80 | 1019.9 |
| 20260508134242 | 12 | 99 | 0.0 | 0.0 | 0.00 | 0.05 | 0.05 | 82 | 1020.2 |
| 20260508133739 | 12 | 93 | 0.0 | 0.0 | 0.00 | 0.05 | 0.05 | 86 | 1020.2 |
| 20260508133236 | 12 | 96 | 0.0 | 1.6 | 0.00 | 0.05 | 0.05 | 87 | 1020.0 |
| 20260508132734 | 11 | 93 | 0.0 | 1.6 | 0.00 | 0.05 | 0.05 | 87 | 1019.9 |
| 20260508132231 | 11 | 115 | 0.0 | 1.6 | 0.00 | 0.05 | 0.05 | 90 | 1019.4 |
| 20260508131727 | 11 | 115 | 0.0 | 0.0 | 0.00 | 0.05 | 0.05 | 92 | 1019.8 |
| 20260508131224 | 10 | 115 | 0.0 | 0.0 | 0.00 | 0.05 | 0.05 | 94 | 1019.7 |
| 20260508130720 | 10 | 115 | 0.0 | 0.0 | 0.00 | 0.05 | 0.05 | 96 | 1019.5 |
| 20260508130217 | 10 | 115 | 0.0 | 0.0 | 0.00 | 0.05 | 0.05 | 97 | 1019.7 |
| 20260508125713 | 9 | 116 | 0.0 | 1.6 | 0.00 | 0.05 | 0.05 | 98 | 1019.6 |
| 20260508125209 | 9 | 113 | 0.0 | 0.0 | 0.00 | 0.05 | 0.05 | 99 | 1019.7 |
| 20260508124708 | 8 | 113 | 0.0 | 0.0 | 0.00 | 0.05 | 0.05 | 99 | 1019.7 |
| 20260508124204 | 8 | 113 | 0.0 | 0.0 | 0.00 | 0.05 | 0.05 | 99 | 1019.7 |
| 20260508123703 | 8 | 113 | 0.0 | 0.0 | 0.00 | 0.05 | 0.05 | 99 | 1019.5 |
| 20260508123201 | 8 | 113 | 0.0 | 0.0 | 0.00 | 0.05 | 0.05 | 99 | 1019.6 |
| 20260508122656 | 8 | 113 | 0.0 | 0.0 | 0.00 | 0.05 | 0.05 | 99 | 1019.6 |
| 20260508122153 | 7 | 113 | 0.0 | 0.0 | 0.00 | 0.05 | 0.05 | 99 | 1019.5 |
| 20260508121651 | 7 | 113 | 0.0 | 0.0 | 0.00 | 0.05 | 0.05 | 99 | 1019.7 |
| 20260508121149 | 7 | 113 | 0.0 | 0.0 | 0.00 | 0.05 | 0.05 | 99 | 1019.5 |
| 20260508120646 | 7 | 113 | 0.0 | 0.0 | 0.00 | 0.05 | 0.05 | 99 | 1019.5 |
| 20260508120144 | 7 | 113 | 0.0 | 0.0 | 0.00 | 0.05 | 0.05 | 99 | 1019.5 |
| 20260508115642 | 6 | 113 | 0.0 | 0.0 | 0.00 | 0.05 | 0.05 | 99 | 1019.5 |
| 20260508115138 | 6 | 113 | 0.0 | 0.0 | 0.00 | 0.05 | 0.05 | 99 | 1019.3 |
| 20260508114636 | 6 | 113 | 0.0 | 0.0 | 0.00 | 0.05 | 0.05 | 99 | 1019.3 |
| 20260508114131 | 6 | 113 | 0.0 | 0.0 | 0.00 | 0.05 | 0.05 | 99 | 1019.0 |
| 20260508113629 | 6 | 114 | 0.0 | 0.0 | 0.00 | 0.05 | 0.05 | 99 | 1018.8 |
| 20260508113127 | 6 | 113 | 0.0 | 0.0 | 0.18 | 0.05 | 0.05 | 99 | 1018.8 |
| 20260508112623 | 6 | 114 | 0.0 | 0.0 | 0.18 | 0.05 | 0.05 | 99 | 1018.8 |
| 20260508112120 | 6 | 115 | 0.0 | 0.0 | 0.00 | 0.03 | 0.03 | 99 | 1018.5 |
| 20260508111616 | 6 | 114 | 0.0 | 0.0 | 0.00 | 0.03 | 0.03 | 99 | 1018.7 |
| 20260508111114 | 6 | 114 | 0.0 | 0.0 | 0.00 | 0.03 | 0.03 | 99 | 1018.5 |
| 20260508110612 | 6 | 114 | 0.0 | 0.0 | 0.00 | 0.03 | 0.03 | 99 | 1018.4 |
| 20260508110107 | 6 | 114 | 0.0 | 0.0 | 0.00 | 0.03 | 0.03 | 99 | 1018.3 |
| 20260508105602 | 6 | 114 | 0.0 | 0.0 | 0.00 | 0.03 | 0.03 | 99 | 1018.1 |
| 20260508105100 | 6 | 114 | 0.0 | 0.0 | 0.00 | 0.03 | 0.03 | 99 | 1018.3 |
| 20260508104557 | 6 | 114 | 0.0 | 1.6 | 0.00 | 0.03 | 0.03 | 99 | 1018.0 |
| 20260508104054 | 6 | 113 | 0.0 | 0.0 | 0.00 | 0.03 | 0.03 | 99 | 1018.1 |
| 20260508103551 | 6 | 113 | 0.0 | 0.0 | 0.00 | 0.03 | 0.03 | 99 | 1018.0 |
| 20260508103048 | 6 | 113 | 0.0 | 0.0 | 0.00 | 0.03 | 0.03 | 99 | 1017.9 |
| 20260508102546 | 6 | 112 | 0.0 | 1.6 | 0.00 | 0.03 | 0.03 | 99 | 1018.0 |
| 20260508102043 | 6 | 113 | 0.0 | 0.0 | 0.00 | 0.03 | 0.03 | 99 | 1017.8 |
| 20260508101540 | 6 | 113 | 0.0 | 0.0 | 0.00 | 0.03 | 0.03 | 99 | 1018.0 |
| 20260508101037 | 6 | 112 | 0.0 | 1.6 | 0.00 | 0.03 | 0.03 | 99 | 1017.9 |
| 20260508100536 | 6 | 109 | 0.0 | 0.0 | 0.00 | 0.03 | 0.03 | 99 | 1017.7 |
| 20260508100032 | 6 | 109 | 0.0 | 3.2 | 0.00 | 0.03 | 0.03 | 99 | 1017.8 |
| 20260508095529 | 6 | 106 | 0.0 | 1.6 | 0.00 | 0.03 | 0.03 | 99 | 1017.7 |
| 20260508095026 | 6 | 105 | 0.0 | 1.6 | 0.00 | 0.03 | 0.03 | 99 | 1017.5 |
| 20260508094523 | 6 | 102 | 0.0 | 0.0 | 0.00 | 0.03 | 0.03 | 99 | 1017.8 |
| 20260508094020 | 6 | 102 | 0.0 | 0.0 | 0.00 | 0.03 | 0.03 | 99 | 1017.7 |
| 20260508093517 | 6 | 103 | 0.0 | 0.0 | 0.00 | 0.03 | 0.03 | 99 | 1017.7 |
| 20260508093015 | 6 | 102 | 0.0 | 0.0 | 0.00 | 0.03 | 0.03 | 99 | 1017.6 |
| 20260508092512 | 6 | 102 | 0.0 | 0.0 | 0.00 | 0.03 | 0.03 | 99 | 1017.7 |
| 20260508092011 | 6 | 102 | 0.0 | 0.0 | 0.00 | 0.03 | 0.03 | 99 | 1017.7 |
| 20260508091507 | 6 | 102 | 0.0 | 0.0 | 0.00 | 0.03 | 0.03 | 99 | 1017.6 |
| 20260508090959 | 6 | 103 | 0.0 | 0.0 | 0.00 | 0.03 | 0.03 | 99 | 1017.6 |
| 20260508090458 | 6 | 103 | 0.0 | 0.0 | 0.00 | 0.03 | 0.03 | 99 | 1017.5 |
| 20260508085953 | 6 | 102 | 0.0 | 0.0 | 0.00 | 0.03 | 0.03 | 99 | 1017.5 |
| 20260508085450 | 6 | 103 | 0.0 | 0.0 | 0.00 | 0.03 | 0.03 | 99 | 1017.6 |
| 20260508084947 | 7 | 102 | 0.0 | 0.0 | 0.00 | 0.03 | 0.03 | 99 | 1017.6 |
| 20260508084443 | 7 | 102 | 0.0 | 0.0 | 0.00 | 0.03 | 0.03 | 99 | 1017.5 |
| 20260508083942 | 7 | 102 | 0.0 | 0.0 | 0.00 | 0.03 | 0.03 | 99 | 1017.6 |
| 20260508083438 | 7 | 102 | 0.0 | 0.0 | 0.00 | 0.03 | 0.03 | 99 | 1017.6 |
| 20260508082938 | 7 | 101 | 0.0 | 0.0 | 0.00 | 0.03 | 0.03 | 99 | 1017.5 |
| 20260508082435 | 7 | 101 | 0.0 | 0.0 | 0.00 | 0.03 | 0.03 | 99 | 1017.4 |
| 20260508081933 | 7 | 101 | 0.0 | 0.0 | 0.00 | 0.03 | 0.03 | 99 | 1017.6 |
| 20260508081430 | 7 | 101 | 0.0 | 0.0 | 0.00 | 0.03 | 0.03 | 99 | 1017.7 |
| 20260508080926 | 7 | 101 | 0.0 | 0.0 | 0.00 | 0.03 | 0.03 | 99 | 1017.5 |
| 20260508080425 | 7 | 101 | 0.0 | 0.0 | 0.00 | 0.03 | 0.03 | 98 | 1017.5 |
| 20260508075921 | 7 | 101 | 0.0 | 0.0 | 0.00 | 0.03 | 0.03 | 98 | 1017.8 |
| 20260508075418 | 7 | 101 | 0.0 | 0.0 | 0.00 | 0.03 | 0.03 | 98 | 1017.4 |
| 20260508074916 | 7 | 101 | 0.0 | 0.0 | 0.00 | 0.03 | 0.03 | 98 | 1017.6 |
| 20260508074408 | 7 | 101 | 0.0 | 0.0 | 0.00 | 0.03 | 0.03 | 98 | 1017.7 |
| 20260508073904 | 7 | 101 | 0.0 | 0.0 | 0.00 | 0.03 | 0.03 | 98 | 1017.6 |
| 20260508073402 | 7 | 101 | 0.0 | 0.0 | 0.00 | 0.03 | 0.03 | 98 | 1017.5 |
| 20260508072858 | 7 | 101 | 0.0 | 0.0 | 0.00 | 0.03 | 0.03 | 98 | 1017.6 |
| 20260508072354 | 7 | 101 | 0.0 | 0.0 | 0.00 | 0.03 | 0.03 | 98 | 1017.6 |
| 20260508071852 | 7 | 101 | 0.0 | 0.0 | 0.00 | 0.03 | 0.03 | 97 | 1017.7 |
| 20260508071350 | 7 | 101 | 0.0 | 0.0 | 0.00 | 0.03 | 0.03 | 97 | 1017.7 |
| 20260508070848 | 7 | 101 | 0.0 | 0.0 | 0.00 | 0.03 | 0.03 | 97 | 1017.8 |
| 20260508070345 | 7 | 101 | 0.0 | 0.0 | 0.00 | 0.03 | 0.03 | 97 | 1017.7 |
| 20260508065843 | 7 | 101 | 0.0 | 0.0 | 0.00 | 0.03 | 0.03 | 97 | 1017.5 |
| 20260508065341 | 7 | 101 | 0.0 | 0.0 | 0.00 | 0.03 | 0.03 | 97 | 1017.7 |
| 20260508064839 | 8 | 101 | 0.0 | 0.0 | 0.00 | 0.03 | 0.03 | 97 | 1017.6 |
| 20260508064336 | 8 | 101 | 0.0 | 0.0 | 0.00 | 0.03 | 0.03 | 96 | 1017.7 |
| 20260508063834 | 8 | 101 | 0.0 | 0.0 | 0.00 | 0.03 | 0.03 | 96 | 1017.7 |
| 20260508063331 | 8 | 101 | 0.0 | 0.0 | 0.00 | 0.03 | 0.03 | 96 | 1017.8 |
| 20260508062828 | 8 | 101 | 0.0 | 0.0 | 0.00 | 0.03 | 0.03 | 96 | 1017.7 |
| 20260508062326 | 8 | 101 | 0.0 | 0.0 | 0.00 | 0.03 | 0.03 | 95 | 1017.7 |
| 20260508061822 | 8 | 101 | 0.0 | 0.0 | 0.00 | 0.03 | 0.03 | 95 | 1017.6 |
| 20260508061320 | 8 | 101 | 0.0 | 0.0 | 0.00 | 0.03 | 0.03 | 95 | 1017.6 |
| 20260508060816 | 8 | 101 | 0.0 | 0.0 | 0.00 | 0.03 | 0.03 | 95 | 1017.8 |
| 20260508060314 | 8 | 101 | 0.0 | 0.0 | 0.00 | 0.03 | 0.03 | 95 | 1017.7 |
| 20260508055814 | 8 | 101 | 0.0 | 0.0 | 0.00 | 0.03 | 0.03 | 95 | 1017.7 |
| 20260508055313 | 8 | 101 | 0.0 | 0.0 | 0.00 | 0.03 | 0.03 | 94 | 1017.7 |
| 20260508054809 | 9 | 101 | 0.0 | 0.0 | 0.00 | 0.03 | 0.03 | 93 | 1017.6 |
| 20260508054306 | 9 | 101 | 0.0 | 0.0 | 0.00 | 0.03 | 0.03 | 93 | 1017.6 |
| 20260508053803 | 9 | 101 | 0.0 | 0.0 | 0.00 | 0.03 | 0.03 | 93 | 1017.6 |
| 20260508053300 | 9 | 101 | 0.0 | 0.0 | 0.00 | 0.03 | 0.03 | 94 | 1017.7 |
| 20260508052757 | 9 | 101 | 0.0 | 0.0 | 0.00 | 0.03 | 0.03 | 94 | 1017.7 |
| 20260508052255 | 8 | 101 | 0.0 | 0.0 | 0.00 | 0.03 | 0.03 | 94 | 1017.6 |
| 20260508051750 | 9 | 101 | 0.0 | 0.0 | 0.00 | 0.03 | 0.03 | 95 | 1017.6 |
| 20260508051246 | 8 | 101 | 0.0 | 0.0 | 0.00 | 0.03 | 0.03 | 94 | 1017.5 |
| 20260508050743 | 8 | 101 | 0.0 | 0.0 | 0.00 | 0.03 | 0.03 | 94 | 1017.7 |
| 20260508050240 | 8 | 101 | 0.0 | 0.0 | 0.00 | 0.03 | 0.03 | 94 | 1017.8 |
| 20260508045735 | 8 | 101 | 0.0 | 0.0 | 0.00 | 0.03 | 0.03 | 94 | 1017.8 |
| 20260508045234 | 8 | 101 | 0.0 | 0.0 | 0.00 | 0.03 | 0.03 | 94 | 1017.6 |
| 20260508044731 | 9 | 101 | 0.0 | 0.0 | 0.00 | 0.03 | 0.03 | 94 | 1017.6 |
| 20260508044227 | 9 | 101 | 0.0 | 0.0 | 0.00 | 0.03 | 0.03 | 94 | 1017.6 |
| 20260508043723 | 9 | 101 | 0.0 | 0.0 | 0.00 | 0.03 | 0.03 | 94 | 1017.6 |
| 20260508043221 | 9 | 101 | 0.0 | 0.0 | 0.00 | 0.03 | 0.03 | 93 | 1017.6 |
| 20260508042717 | 9 | 101 | 0.0 | 0.0 | 0.00 | 0.03 | 0.03 | 93 | 1017.5 |
| 20260508042215 | 10 | 101 | 0.0 | 0.0 | 0.00 | 0.03 | 0.03 | 94 | 1017.5 |
| 20260508041711 | 9 | 101 | 0.0 | 0.0 | 0.00 | 0.03 | 0.03 | 93 | 1017.4 |
| 20260508041209 | 9 | 101 | 0.0 | 0.0 | 0.13 | 0.03 | 0.03 | 93 | 1017.3 |
| 20260508040705 | 9 | 101 | 0.0 | 0.0 | 0.13 | 0.03 | 0.03 | 93 | 1017.4 |
| 20260508040202 | 10 | 101 | 0.0 | 0.0 | 0.00 | 0.00 | 0.00 | 93 | 1017.5 |
| 20260508035659 | 10 | 101 | 0.0 | 0.0 | 0.00 | 0.25 | 0.25 | 92 | 1017.5 |
| 20260508035157 | 10 | 101 | 0.0 | 0.0 | 0.00 | 0.25 | 0.25 | 91 | 1017.2 |
| 20260508034653 | 10 | 101 | 0.0 | 0.0 | 0.00 | 0.25 | 0.25 | 91 | 1017.2 |
| 20260508034150 | 10 | 101 | 0.0 | 0.0 | 0.00 | 0.25 | 0.25 | 90 | 1017.1 |
| 20260508033648 | 10 | 101 | 0.0 | 0.0 | 0.00 | 0.25 | 0.25 | 91 | 1017.2 |
| 20260508033146 | 10 | 101 | 0.0 | 0.0 | 0.00 | 0.25 | 0.25 | 92 | 1017.0 |